Time;durP1;ratioP1;P1;durP2;ratioP2;P2;SDS_P1;SDS_P2;PMS_P1;PMS_P2;Temp;Humidity;BMP_temperature;BMP_pressure;BME280_temperature;BME280_humidity;BME280_pressure;Samples;Min_cycle;Max_cycle;Signal;HPM_P1;HPM_P2
2023/05/02 00:44:08;;;;;;;13.70;6.22;;;15.10;85.70;;;;;;7409145;19;20014;-82
2023/05/02 06:29:34;;;;;;;;;;;14.50;92.70;;;;;;7439027;19;20014;-80
2023/05/02 06:32:04;;;;;;;38.05;16.65;;;14.60;92.80;;;;;;7417518;19;19910;-79
2023/05/02 06:48:33;;;;;;;35.72;16.30;;;14.80;92.60;;;;;;7408755;19;20377;-78
2023/05/02 06:51:03;;;;;;;36.67;16.40;;;15.20;92.30;;;;;;7438337;19;20007;-76
2023/05/02 06:53:32;;;;;;;37.70;17.00;;;15.10;92.30;;;;;;7415491;19;20006;-76
2023/05/02 06:56:00;;;;;;;43.05;16.67;;;15.20;92.20;;;;;;7412751;19;20344;-78
2023/05/02 06:58:29;;;;;;;41.80;17.33;;;15.30;92.20;;;;;;7415790;19;20020;-77
2023/05/02 07:00:58;;;;;;;39.28;17.38;;;15.30;92.20;;;;;;7413069;19;20074;-78
2023/05/02 07:03:27;;;;;;;37.35;17.15;;;15.40;92.20;;;;;;7433866;19;20010;-77
2023/05/02 07:11:29;;;;;;;33.85;16.65;;;15.30;92.50;;;;;;7439618;19;20021;-79
2023/05/02 07:13:58;;;;;;;35.03;16.67;;;15.40;92.70;;;;;;7418544;19;20011;-76
2023/05/02 07:16:30;;;;;;;39.25;18.05;;;15.50;92.70;;;;;;7415840;19;20007;-79
2023/05/02 07:18:59;;;;;;;41.95;17.67;;;15.40;92.70;;;;;;7417627;19;20349;-77
2023/05/02 07:21:34;;;;;;;41.97;17.70;;;15.50;92.70;;;;;;7418048;19;20002;-80
2023/05/02 07:24:03;;;;;;;41.03;18.48;;;15.60;92.60;;;;;;7415980;19;20151;-76
2023/05/02 07:29:08;;;;;;;48.90;18.92;;;15.70;92.50;;;;;;7332374;19;20033;-78
2023/05/02 07:31:52;;;;;;;43.53;19.55;;;15.50;93.00;;;;;;7417927;19;20009;-80
2023/05/02 07:34:29;;;;;;;44.40;18.85;;;15.60;92.60;;;;;;7419437;19;20013;-80
2023/05/02 07:37:05;;;;;;;46.35;19.30;;;15.80;92.60;;;;;;7418364;19;20035;-80
2023/05/02 07:39:35;;;;;;;44.90;18.45;;;15.80;92.50;;;;;;7410701;19;20006;-79
2023/05/02 07:42:23;;;;;;;41.22;17.98;;;15.90;92.60;;;;;;7418808;19;20317;-79
2023/05/02 07:44:52;;;;;;;45.08;18.52;;;15.90;92.60;;;;;;7418949;19;20013;-78
2023/05/02 07:47:21;;;;;;;42.30;18.45;;;16.00;92.90;;;;;;7437715;19;20016;-78
2023/05/02 08:06:40;;;;;;;34.97;17.10;;;16.30;92.00;;;;;;7412842;19;20009;-79
2023/05/02 08:09:21;;;;;;;42.35;17.48;;;16.30;91.90;;;;;;7415419;19;20002;-81
2023/05/02 08:11:53;;;;;;;40.95;18.42;;;16.30;92.20;;;;;;7414049;19;20036;-80
2023/05/02 08:14:27;;;;;;;42.35;18.02;;;16.30;91.90;;;;;;7437252;19;20018;-80
2023/05/02 08:17:01;;;;;;;35.22;16.80;;;16.30;91.90;;;;;;7417909;19;20238;-79
2023/05/02 08:19:30;;;;;;;35.20;16.48;;;16.30;91.90;;;;;;7420446;19;20006;-79
2023/05/02 08:22:10;;;;;;;33.92;16.70;;;16.40;91.80;;;;;;7416728;19;20322;-80
2023/05/02 08:25:04;;;;;;;31.92;15.55;;;16.40;91.90;;;;;;7416051;19;20028;-80
2023/05/02 08:27:35;;;;;;;38.15;17.27;;;16.40;91.90;;;;;;7417305;19;20400;-80
2023/05/02 08:30:17;;;;;;;37.90;16.83;;;16.50;91.80;;;;;;7422441;19;20018;-80
2023/05/02 08:32:48;;;;;;;36.72;15.50;;;16.50;91.70;;;;;;7429205;19;20282;-79
2023/05/02 08:35:19;;;;;;;35.90;15.95;;;16.60;91.70;;;;;;7441291;19;20395;-80
2023/05/02 08:38:17;;;;;;;38.22;15.50;;;16.70;91.70;;;;;;7419963;19;20076;-80
2023/05/02 08:40:50;;;;;;;38.25;15.50;;;16.60;91.10;;;;;;7420723;19;20254;-80
2023/05/02 08:43:29;;;;;;;29.38;14.50;;;16.70;91.40;;;;;;7420201;19;20023;-81
2023/05/02 08:46:07;;;;;;;38.58;16.52;;;16.80;91.20;;;;;;7420944;19;20011;-80
2023/05/02 08:49:01;;;;;;;;;;;;;;;;;;;;;
2023/05/02 08:51:34;;;;;;;34.35;16.08;;;16.90;90.70;;;;;;7417416;19;20462;-80
2023/05/02 08:54:31;;;;;;;;;;;;;;;;;;;;;
2023/05/02 08:57:34;;;;;;;34.67;17.17;;;17.10;90.80;;;;;;7390840;19;20188;-80
2023/05/02 09:00:20;;;;;;;33.22;16.48;;;17.20;90.50;;;;;;7388993;19;20420;-80
2023/05/02 09:03:04;;;;;;;31.17;15.32;;;17.30;90.20;;;;;;7390148;19;20042;-80
2023/05/02 09:06:12;;;;;;;;;;;;;;;;;;;;;
2023/05/02 09:08:53;;;;;;;36.05;15.48;;;17.40;90.20;;;;;;7290664;19;2020633;-80
2023/05/02 09:15:24;;;;;;;29.92;16.35;;;17.40;89.40;;;;;;7414694;19;20090;-79
2023/05/02 09:21:08;;;;;;;35.53;14.00;;;17.40;90.00;;;;;;7392661;19;20010;-80
2023/05/02 09:47:30;;;;;;;22.58;8.93;;;17.70;87.20;;;;;;6135911;19;17030383;-81
2023/05/02 09:50:58;;;;;;;21.00;8.85;;;17.90;86.90;;;;;;7425505;19;20007;-81
2023/05/02 10:00:59;;;;;;;20.77;9.18;;;18.10;86.40;;;;;;7421998;19;20264;-81
2023/05/02 10:17:28;;;;;;;31.20;16.05;;;18.30;85.90;;;;;;7427741;19;20372;-81
2023/05/02 10:20:08;;;;;;;35.00;16.98;;;18.40;86.00;;;;;;7429058;19;20017;-81
2023/05/02 10:22:42;;;;;;;37.58;18.25;;;18.40;86.00;;;;;;7425114;19;19998;-81
2023/05/02 10:25:18;;;;;;;34.88;19.40;;;18.20;86.60;;;;;;7421762;19;20005;-80
2023/05/02 10:27:48;;;;;;;39.15;18.98;;;18.30;87.00;;;;;;7419418;19;20002;-80
2023/05/02 10:49:53;;;;;;;12.43;5.30;;;18.40;85.10;;;;;;7395061;19;20426;-81
2023/05/02 10:52:34;;;;;;;11.98;5.97;;;18.50;83.60;;;;;;7419008;19;20023;-80
2023/05/02 10:55:20;;;;;;;18.40;7.13;;;18.60;82.00;;;;;;7417034;19;20258;-78
2023/05/02 10:58:25;;;;;;;16.65;6.80;;;18.70;81.90;;;;;;7416332;19;20011;-78
2023/05/02 11:00:54;;;;;;;11.90;6.35;;;18.70;82.70;;;;;;7417299;19;20093;-79
2023/05/02 11:03:56;;;;;;;12.75;6.18;;;18.70;83.00;;;;;;7414781;19;20003;-80
2023/05/02 11:06:28;;;;;;;12.52;5.70;;;18.90;81.50;;;;;;7416426;19;20277;-80
2023/05/02 11:09:48;;;;;;;17.55;6.30;;;19.00;81.10;;;;;;7414415;19;20003;-80
2023/05/02 11:12:51;;;;;;;14.77;5.93;;;19.10;80.80;;;;;;7419182;19;20003;-80
2023/05/02 11:15:54;;;;;;;12.63;6.55;;;19.10;80.00;;;;;;7412806;19;20617;-81
2023/05/02 11:19:04;;;;;;;13.90;6.60;;;19.10;80.80;;;;;;7386443;19;20006;-82
2023/05/02 11:21:37;;;;;;;16.00;5.57;;;19.10;80.80;;;;;;7384727;19;20007;-77
2023/05/02 22:47:05;;;;;;;15.40;6.28;;;18.80;69.10;;;;;;7393701;19;20022;-75
2023/05/02 22:49:34;;;;;;;10.80;5.55;;;18.80;69.00;;;;;;7387963;19;20007;-75
2023/05/02 22:52:03;;;;;;;12.27;5.80;;;18.70;69.30;;;;;;7381133;19;20409;-75
2023/05/02 22:54:32;;;;;;;14.13;5.85;;;18.70;69.60;;;;;;7381281;19;20010;-74
2023/05/02 22:57:00;;;;;;;9.07;5.18;;;18.70;69.70;;;;;;7381836;19;20011;-74
2023/05/02 22:59:29;;;;;;;14.13;6.28;;;18.60;69.60;;;;;;7403830;19;20385;-74
2023/05/02 23:02:01;;;;;;;10.13;6.60;;;18.70;69.50;;;;;;7383269;19;20058;-75
2023/05/02 23:04:31;;;;;;;15.65;6.50;;;18.60;69.50;;;;;;7396898;19;20010;-74
2023/05/02 23:07:00;;;;;;;14.38;5.85;;;18.60;70.60;;;;;;7397385;19;20016;-75
2023/05/02 23:09:29;;;;;;;11.15;6.15;;;18.60;69.80;;;;;;7392432;19;20014;-74
2023/05/02 23:11:57;;;;;;;14.88;6.57;;;18.50;69.80;;;;;;7400919;19;20006;-75
2023/05/02 23:14:26;;;;;;;14.07;6.60;;;18.50;69.50;;;;;;7416527;19;20015;-74
2023/05/02 23:16:55;;;;;;;13.77;6.38;;;18.50;69.50;;;;;;7394324;19;20357;-75
2023/05/02 23:19:27;;;;;;;11.18;6.15;;;18.50;69.70;;;;;;7396413;19;20011;-74
2023/05/02 23:21:55;;;;;;;12.50;6.43;;;18.40;69.70;;;;;;7393282;19;20400;-73
2023/05/02 23:24:24;;;;;;;15.18;6.18;;;18.40;69.70;;;;;;7389956;19;20265;-73
2023/05/02 23:26:53;;;;;;;10.35;5.97;;;18.40;69.90;;;;;;7394572;19;20011;-73
2023/05/02 23:29:21;;;;;;;15.32;6.43;;;18.40;69.80;;;;;;7406064;19;20011;-74
2023/05/02 23:31:53;;;;;;;10.73;6.10;;;18.40;69.90;;;;;;7383936;19;20021;-74
2023/05/02 23:34:22;;;;;;;13.02;6.40;;;18.40;69.70;;;;;;7385927;19;20037;-75
2023/05/02 23:36:54;;;;;;;14.30;6.30;;;18.40;69.90;;;;;;7391314;19;20007;-75
2023/05/02 23:39:23;;;;;;;14.73;6.35;;;18.30;69.80;;;;;;7385088;19;20006;-75
2023/05/02 23:41:51;;;;;;;15.43;7.03;;;18.30;69.70;;;;;;7384369;19;20028;-75
2023/05/02 23:44:20;;;;;;;10.73;6.00;;;18.30;69.60;;;;;;7406393;19;20006;-75
2023/05/02 23:46:49;;;;;;;12.65;6.32;;;18.30;69.70;;;;;;7382436;19;20274;-74
2023/05/02 23:49:18;;;;;;;15.15;6.20;;;18.20;69.80;;;;;;7385815;19;20006;-74
2023/05/02 23:51:46;;;;;;;10.95;6.28;;;18.20;69.90;;;;;;7381284;19;20007;-74
2023/05/02 23:54:18;;;;;;;14.82;6.68;;;18.20;70.00;;;;;;7387655;19;20023;-74
2023/05/02 23:56:46;;;;;;;17.85;6.40;;;18.10;69.80;;;;;;7410167;19;20002;-75
2023/05/02 23:59:15;;;;;;;10.05;5.75;;;18.10;69.70;;;;;;7386202;19;20010;-74
